createdAt,value
2022-11-18T00:00:46.982Z,6.20
2022-11-18T00:03:12.982Z,5.60
2022-11-18T00:05:39.015Z,6.70
2022-11-18T00:08:05.051Z,6.40
2022-11-18T00:10:31.079Z,7.10
2022-11-18T00:13:15.488Z,5.90
2022-11-18T00:15:41.811Z,6.07
2022-11-18T00:18:08.158Z,6.50
2022-11-18T00:20:34.741Z,6.70
2022-11-18T00:23:00.768Z,7.23
2022-11-18T00:25:26.942Z,6.33
2022-11-18T00:27:53.632Z,5.77
2022-11-18T00:30:19.759Z,5.40
2022-11-18T00:32:45.827Z,4.93
2022-11-18T00:35:11.830Z,4.73
2022-11-18T00:37:37.846Z,5.40
2022-11-18T00:40:04.347Z,5.03
2022-11-18T00:42:48.802Z,5.10
2022-11-18T00:45:14.828Z,5.50
2022-11-18T00:47:40.873Z,5.27
2022-11-18T00:50:07.315Z,4.97
2022-11-18T00:52:33.380Z,4.67
2022-11-18T00:54:59.399Z,4.80
2022-11-18T00:57:25.409Z,5.63
2022-11-18T00:59:51.434Z,5.40
2022-11-18T01:02:17.464Z,5.30
2022-11-18T01:04:43.503Z,4.67
2022-11-18T01:07:09.684Z,5.60
2022-11-18T01:09:35.800Z,5.10
2022-11-18T01:12:20.441Z,5.10
2022-11-18T01:14:46.530Z,5.40
2022-11-18T01:17:12.568Z,4.83
2022-11-18T01:19:38.692Z,4.80
2022-11-18T01:22:04.716Z,4.33
2022-11-18T01:24:42.149Z,4.30
2022-11-18T01:27:08.178Z,4.70
2022-11-18T01:29:34.207Z,4.80
2022-11-18T01:34:46.365Z,4.77
2022-11-18T01:37:12.405Z,5.87
2022-11-18T01:39:38.422Z,5.43
2022-11-18T01:42:04.528Z,5.27
2022-11-18T01:45:01.645Z,5.60
2022-11-18T01:47:32.354Z,5.30
2022-11-18T01:49:58.813Z,5.00
2022-11-18T01:52:24.969Z,4.20
2022-11-18T01:54:55.473Z,5.93
2022-11-18T01:57:22.416Z,4.97
2022-11-18T01:59:50.149Z,5.27
2022-11-18T02:02:16.181Z,5.50
2022-11-18T02:04:44.864Z,5.50
2022-11-18T02:07:11.164Z,4.70
2022-11-18T02:09:37.797Z,4.80
2022-11-18T02:12:04.490Z,5.07
2022-11-18T02:14:34.374Z,4.00
2022-11-18T02:17:18.695Z,4.73
2022-11-18T02:19:51.922Z,5.00
2022-11-18T02:22:36.571Z,4.10
2022-11-18T02:25:33.592Z,3.60
2022-11-18T02:28:21.395Z,3.50
2022-11-18T02:30:56.492Z,3.73
2022-11-18T02:33:25.492Z,4.70
2022-11-18T02:35:56.624Z,4.07
2022-11-18T02:38:31.045Z,4.17
2022-11-18T02:41:06.043Z,4.80
2022-11-18T02:43:34.200Z,5.13
2022-11-18T02:46:03.538Z,4.53
2022-11-18T02:48:32.182Z,4.80
2022-11-18T02:50:59.256Z,4.50
2022-11-18T02:53:27.928Z,4.47
2022-11-18T02:55:54.628Z,4.70
2022-11-18T02:58:21.685Z,4.80
2022-11-18T03:00:55.151Z,4.63
2022-11-18T03:03:32.805Z,4.80
2022-11-18T03:06:07.874Z,4.53
2022-11-18T03:08:39.826Z,4.50
2022-11-18T03:11:16.474Z,4.30
2022-11-18T03:14:04.785Z,4.50
2022-11-18T03:17:01.436Z,4.67
2022-11-18T03:19:45.686Z,4.60
2022-11-18T03:22:34.041Z,4.70
2022-11-18T03:25:06.836Z,4.77
2022-11-18T03:27:58.764Z,4.67
2022-11-18T03:30:25.667Z,5.20
2022-11-18T03:32:57.170Z,5.87
2022-11-18T03:35:28.943Z,4.60
2022-11-18T03:38:00.913Z,5.67
2022-11-18T03:40:29.048Z,5.00
2022-11-18T03:43:22.203Z,5.23
2022-11-18T03:45:54.415Z,5.70
2022-11-18T03:48:26.896Z,5.33
2022-11-18T03:51:01.026Z,6.23
2022-11-18T03:53:29.228Z,5.27
2022-11-18T03:56:03.000Z,5.40
2022-11-18T03:58:37.803Z,5.73
2022-11-18T04:01:11.084Z,5.83
2022-11-18T04:03:37.319Z,5.20
2022-11-18T04:06:10.128Z,5.87
2022-11-18T04:08:37.811Z,5.43
2022-11-18T04:11:08.086Z,5.90
2022-11-18T04:13:36.101Z,5.50
2022-11-18T04:16:02.228Z,5.80
2022-11-18T04:18:28.302Z,5.47
2022-11-18T04:20:54.328Z,6.10
2022-11-18T04:23:20.367Z,6.50
2022-11-18T04:25:46.415Z,6.43
2022-11-18T04:28:12.568Z,6.20
2022-11-18T04:30:38.666Z,6.30
2022-11-18T04:33:04.751Z,6.33
2022-11-18T04:35:30.765Z,6.10
2022-11-18T04:37:56.789Z,6.80
2022-11-18T04:40:22.839Z,6.60
2022-11-18T04:42:48.862Z,6.57
2022-11-18T04:45:15.048Z,7.40
2022-11-18T04:47:41.196Z,7.53
2022-11-18T04:50:07.631Z,6.80
2022-11-18T04:52:33.920Z,7.40
2022-11-18T04:55:00.025Z,7.67
2022-11-18T04:57:26.467Z,7.27
2022-11-18T04:59:52.577Z,7.70
2022-11-18T05:02:18.723Z,7.57
2022-11-18T05:04:44.847Z,7.17
2022-11-18T05:07:14.297Z,7.80
2022-11-18T05:09:40.410Z,7.10
2022-11-18T05:12:29.589Z,7.10
2022-11-18T05:14:55.614Z,6.37
2022-11-18T05:17:21.629Z,7.30
2022-11-18T05:19:47.746Z,7.63
2022-11-18T05:22:14.799Z,7.40
2022-11-18T05:24:40.881Z,8.27
2022-11-18T05:27:06.940Z,8.70
2022-11-18T05:29:32.972Z,8.70
2022-11-18T05:31:59.030Z,7.70
2022-11-18T05:34:25.055Z,8.07
2022-11-18T05:36:51.164Z,8.97
2022-11-18T05:39:17.566Z,9.10
2022-11-18T05:42:02.237Z,7.67
2022-11-18T05:44:28.258Z,8.60
2022-11-18T05:46:54.543Z,8.00
2022-11-18T05:49:20.738Z,7.70
2022-11-18T05:51:46.919Z,7.30
2022-11-18T05:54:14.151Z,7.60
2022-11-18T05:56:44.085Z,8.30
2022-11-18T05:59:10.361Z,8.47
2022-11-18T06:02:00.106Z,8.77
2022-11-18T06:04:31.735Z,9.07
2022-11-18T06:07:07.626Z,9.10
2022-11-18T06:09:36.932Z,10.37
2022-11-18T06:12:03.625Z,11.03
2022-11-18T06:14:34.961Z,11.27
2022-11-18T06:17:05.062Z,9.80
2022-11-18T06:19:31.549Z,10.67
2022-11-18T06:21:57.785Z,9.53
2022-11-18T06:24:24.240Z,8.50
2022-11-18T06:26:50.581Z,8.87
2022-11-18T06:29:22.932Z,9.20
2022-11-18T06:31:52.140Z,8.67
2022-11-18T06:34:18.320Z,10.00
2022-11-18T06:36:44.338Z,9.17
2022-11-18T06:39:10.389Z,10.47
2022-11-18T06:41:36.402Z,10.47
2022-11-18T06:44:02.463Z,9.23
2022-11-18T06:46:47.185Z,9.57
2022-11-18T06:49:13.256Z,10.33
2022-11-18T06:51:39.611Z,10.93
2022-11-18T06:54:10.411Z,11.50
2022-11-18T06:56:37.265Z,10.30
2022-11-18T06:59:03.984Z,10.70
2022-11-18T07:01:32.134Z,9.77
2022-11-18T07:03:59.245Z,9.70
2022-11-18T07:06:27.172Z,9.53
2022-11-18T07:08:53.287Z,9.30
2022-11-18T07:11:21.964Z,8.83
2022-11-18T07:13:48.147Z,10.00
2022-11-18T07:16:20.755Z,9.30
2022-11-18T07:18:48.180Z,10.60
2022-11-18T07:21:16.473Z,9.50
2022-11-18T07:23:43.042Z,10.07
2022-11-18T07:26:09.507Z,9.27
2022-11-18T07:28:35.681Z,10.17
2022-11-18T07:31:12.560Z,10.80
2022-11-18T07:33:39.892Z,11.03
2022-11-18T07:36:10.908Z,11.67
2022-11-18T07:38:37.284Z,11.40
2022-11-18T07:41:22.842Z,11.70
2022-11-18T07:43:50.040Z,11.73
2022-11-18T07:46:21.476Z,13.37
2022-11-18T07:48:49.496Z,11.93
2022-11-18T07:51:17.169Z,13.13
2022-11-18T07:53:43.408Z,12.60
2022-11-18T07:56:10.076Z,13.27
2022-11-18T07:58:36.462Z,16.80
2022-11-18T08:01:07.763Z,13.63
2022-11-18T08:03:33.897Z,13.10
2022-11-18T08:06:00.820Z,11.93
2022-11-18T08:08:27.263Z,13.00
2022-11-18T08:10:57.312Z,13.30
2022-11-18T08:13:24.283Z,14.50
2022-11-18T08:15:50.760Z,14.10
2022-11-18T08:18:16.939Z,14.73
2022-11-18T08:20:44.528Z,14.90
2022-11-18T08:23:11.726Z,16.10
2022-11-18T08:25:37.927Z,15.23
2022-11-18T08:28:04.197Z,16.83
2022-11-18T08:30:30.350Z,15.50
2022-11-18T08:32:56.455Z,15.83
2022-11-18T08:35:22.499Z,15.33
2022-11-18T08:37:48.556Z,17.57
2022-11-18T08:40:14.926Z,17.97
2022-11-18T08:42:40.955Z,17.03
2022-11-18T08:45:10.006Z,17.13
2022-11-18T08:47:36.452Z,18.53
2022-11-18T08:50:04.682Z,18.90
2022-11-18T08:52:30.775Z,16.93
2022-11-18T08:54:56.925Z,17.27
2022-11-18T08:57:23.466Z,17.17
2022-11-18T08:59:49.589Z,19.10
2022-11-18T09:02:17.744Z,17.27
2022-11-18T09:04:43.768Z,17.30
2022-11-18T09:07:09.864Z,19.50
2022-11-18T09:09:36.171Z,21.97
2022-11-18T09:12:02.266Z,24.10
2022-11-18T09:17:14.548Z,20.43
2022-11-18T09:19:48.679Z,19.37
2022-11-18T09:22:14.809Z,17.50
2022-11-18T09:24:40.931Z,18.73
2022-11-18T09:27:12.240Z,17.33
2022-11-18T09:29:39.864Z,17.70
2022-11-18T09:32:05.882Z,17.67
2022-11-18T09:34:33.613Z,17.73
2022-11-18T09:36:59.686Z,18.80
2022-11-18T09:39:25.930Z,17.53
2022-11-18T09:42:05.475Z,18.27
2022-11-18T09:44:44.581Z,17.00
2022-11-18T09:47:29.202Z,16.03
2022-11-18T09:49:57.132Z,16.50
2022-11-18T09:52:23.122Z,16.53
2022-11-18T09:54:49.260Z,17.43
2022-11-18T09:57:18.357Z,15.33
2022-11-18T09:59:44.783Z,17.37
2022-11-18T10:02:32.084Z,15.57
2022-11-18T10:05:13.658Z,16.60
2022-11-18T10:08:00.655Z,15.60
2022-11-18T10:11:16.133Z,14.37
2022-11-18T10:14:00.783Z,15.30
2022-11-18T10:17:05.320Z,15.10
2022-11-18T10:20:24.569Z,15.20
2022-11-18T10:23:21.409Z,13.30
2022-11-18T10:25:47.462Z,15.43
2022-11-18T10:28:25.559Z,13.33
2022-11-18T10:30:52.110Z,13.57
2022-11-18T10:33:25.642Z,14.30
2022-11-18T10:36:17.547Z,15.17
2022-11-18T10:38:49.501Z,16.40
2022-11-18T10:41:17.883Z,15.57
2022-11-18T10:43:52.567Z,14.23
2022-11-18T10:46:18.625Z,14.03
2022-11-18T10:48:44.849Z,13.90
2022-11-18T10:51:31.128Z,13.77
2022-11-18T10:54:15.526Z,12.77
2022-11-18T10:56:58.065Z,13.50
2022-11-18T10:59:39.855Z,13.93
2022-11-18T11:02:31.666Z,12.33
2022-11-18T11:04:59.149Z,13.83
2022-11-18T11:07:34.311Z,11.80
2022-11-18T11:10:12.693Z,13.10
2022-11-18T11:12:46.466Z,13.23
2022-11-18T11:15:24.542Z,11.97
2022-11-18T11:18:17.181Z,13.37
2022-11-18T11:20:43.695Z,13.40
2022-11-18T11:23:11.425Z,13.97
2022-11-18T11:28:55.010Z,12.90
2022-11-18T11:31:28.744Z,12.20
2022-11-18T11:34:46.651Z,12.60
2022-11-18T11:37:28.111Z,11.40
2022-11-18T11:40:01.323Z,11.53
2022-11-18T11:42:44.789Z,12.10
2022-11-18T11:45:46.606Z,11.27
2022-11-18T11:48:27.069Z,12.73
2022-11-18T11:51:04.348Z,11.50
2022-11-18T11:53:43.537Z,11.50
2022-11-18T11:56:28.288Z,12.33
2022-11-18T11:59:05.612Z,11.13
2022-11-18T12:01:53.104Z,11.63
2022-11-18T12:04:31.399Z,12.33
2022-11-18T12:06:58.436Z,11.13
2022-11-18T12:09:33.608Z,11.87
2022-11-18T12:12:35.509Z,12.77
2022-11-18T12:15:07.724Z,11.27
2022-11-18T12:17:40.251Z,10.73
2022-11-18T12:20:34.435Z,10.80
2022-11-18T12:23:18.884Z,10.10
2022-11-18T12:25:47.962Z,11.40
2022-11-18T12:28:29.082Z,10.73
2022-11-18T12:31:17.045Z,11.17
2022-11-18T12:33:54.149Z,10.50
2022-11-18T12:36:26.266Z,10.10
2022-11-18T12:38:53.719Z,10.93
2022-11-18T12:41:57.355Z,10.90
2022-11-18T12:44:25.824Z,11.07
2022-11-18T12:47:01.647Z,10.93
2022-11-18T12:49:27.656Z,10.73
2022-11-18T12:52:01.459Z,10.37
2022-11-18T12:54:27.476Z,9.30
2022-11-18T12:56:55.412Z,10.80
2022-11-18T12:59:36.390Z,8.60
2022-11-18T13:02:20.636Z,9.77
2022-11-18T13:05:10.336Z,9.57
2022-11-18T13:08:01.585Z,10.10
2022-11-18T13:10:31.257Z,10.37
2022-11-18T13:12:58.522Z,9.80
2022-11-18T13:15:42.850Z,9.87
2022-11-18T13:18:15.144Z,10.80
2022-11-18T13:20:42.384Z,10.27
2022-11-18T13:23:26.840Z,10.73
2022-11-18T13:25:53.893Z,9.70
2022-11-18T13:28:35.061Z,8.30
2022-11-18T13:31:34.489Z,9.30
2022-11-18T13:34:02.391Z,7.90
2022-11-18T13:36:30.394Z,9.30
2022-11-18T13:39:06.408Z,8.27
2022-11-18T13:41:34.572Z,7.63
2022-11-18T13:44:31.715Z,6.90
2022-11-18T13:47:19.027Z,6.97
2022-11-18T13:49:59.660Z,7.60
2022-11-18T13:52:57.667Z,7.07
2022-11-18T13:55:27.105Z,7.93
2022-11-18T13:58:19.726Z,6.83
2022-11-18T14:01:00.098Z,6.77
2022-11-18T14:03:40.302Z,6.40
2022-11-18T14:06:07.375Z,6.20
2022-11-18T14:08:35.304Z,6.30
2022-11-18T14:11:02.833Z,8.97
2022-11-18T14:13:34.705Z,6.07
2022-11-18T14:16:20.698Z,5.40
2022-11-18T14:18:48.841Z,5.80
2022-11-18T14:21:26.589Z,5.20
2022-11-18T14:23:52.652Z,4.90
2022-11-18T14:26:33.310Z,6.43
2022-11-18T14:29:02.783Z,5.60
2022-11-18T14:31:30.938Z,4.80
2022-11-18T14:34:15.566Z,4.70
2022-11-18T14:36:41.660Z,4.40
2022-11-18T14:39:27.403Z,4.00
2022-11-18T14:41:54.572Z,4.20
2022-11-18T14:44:22.278Z,3.77
2022-11-18T14:46:54.610Z,3.53
2022-11-18T14:49:22.977Z,3.50
2022-11-18T14:51:50.228Z,3.40
2022-11-18T14:54:25.187Z,3.00
2022-11-18T14:56:55.171Z,2.83
2022-11-18T14:59:21.664Z,3.00
2022-11-18T15:01:47.866Z,7.33
2022-11-18T15:04:18.761Z,3.67
2022-11-18T15:06:45.082Z,3.50
2022-11-18T15:09:11.822Z,3.40
2022-11-18T15:11:37.952Z,3.53
2022-11-18T15:14:04.015Z,3.20
2022-11-18T15:16:33.285Z,3.50
2022-11-18T15:19:01.086Z,3.53
2022-11-18T15:21:28.037Z,3.07
2022-11-18T15:23:54.163Z,3.07
2022-11-18T15:26:20.204Z,4.37
2022-11-18T15:28:51.415Z,2.67
2022-11-18T15:31:18.440Z,3.83
2022-11-18T15:33:45.496Z,3.43
2022-11-18T15:36:23.021Z,3.40
2022-11-18T15:38:50.199Z,3.20
2022-11-18T15:41:26.414Z,3.53
2022-11-18T15:43:54.079Z,3.53
2022-11-18T15:46:21.662Z,3.27
2022-11-18T15:48:50.743Z,3.90
2022-11-18T15:51:16.962Z,3.60
2022-11-18T15:53:43.082Z,3.70
2022-11-18T15:56:18.151Z,3.67
2022-11-18T15:58:45.297Z,2.90
2022-11-18T16:01:11.522Z,3.30
2022-11-18T16:03:38.203Z,3.20
2022-11-18T16:06:04.577Z,3.90
2022-11-18T16:08:30.719Z,4.27
2022-11-18T16:11:16.420Z,3.73
2022-11-18T16:13:42.967Z,3.90
2022-11-18T16:16:22.741Z,3.47
2022-11-18T16:18:49.175Z,3.70
2022-11-18T16:21:15.703Z,4.30
2022-11-18T16:23:42.101Z,3.90
2022-11-18T16:26:08.200Z,3.07
2022-11-18T16:28:34.424Z,2.53
2022-11-18T16:31:19.140Z,3.10
2022-11-18T16:33:45.358Z,2.63
2022-11-18T16:36:12.036Z,3.10
2022-11-18T16:38:38.557Z,2.60
2022-11-18T16:41:25.089Z,2.00
2022-11-18T16:43:51.289Z,2.30
2022-11-18T16:46:17.922Z,2.70
2022-11-18T16:48:44.157Z,2.30
2022-11-18T16:51:19.360Z,2.17
2022-11-18T16:53:52.983Z,2.53
2022-11-18T16:56:30.818Z,2.37
2022-11-18T16:59:12.437Z,2.17
2022-11-18T17:01:42.939Z,2.23
2022-11-18T17:04:11.744Z,1.50
2022-11-18T17:06:40.157Z,1.70
2022-11-18T17:09:07.916Z,1.70
2022-11-18T17:11:35.836Z,1.90
2022-11-18T17:14:02.713Z,1.43
2022-11-18T17:16:29.982Z,1.90
2022-11-18T17:18:58.781Z,1.33
2022-11-18T17:21:31.650Z,1.67
2022-11-18T17:23:59.719Z,1.80
2022-11-18T17:26:27.667Z,2.20
2022-11-18T17:28:57.284Z,2.37
2022-11-18T17:31:24.215Z,2.00
2022-11-18T17:33:52.089Z,2.03
2022-11-18T17:36:20.815Z,2.03
2022-11-18T17:38:49.177Z,2.60
2022-11-18T17:41:37.394Z,2.00
2022-11-18T17:44:05.390Z,2.70
2022-11-18T17:46:37.550Z,2.30
2022-11-18T17:49:06.291Z,3.20
2022-11-18T17:51:32.635Z,5.87
2022-11-18T17:53:58.856Z,2.47
2022-11-18T17:56:25.194Z,3.20
2022-11-18T17:58:52.500Z,3.17
2022-11-18T18:01:23.265Z,5.40
2022-11-18T18:03:49.707Z,3.23
2022-11-18T18:06:17.939Z,2.80
2022-11-18T18:08:44.518Z,3.40
2022-11-18T18:11:18.449Z,4.10
2022-11-18T18:14:03.869Z,3.70
2022-11-18T18:16:31.296Z,3.57
2022-11-18T18:18:58.423Z,3.40
2022-11-18T18:21:24.951Z,2.57
2022-11-18T18:23:51.100Z,2.80
2022-11-18T18:26:17.529Z,4.23
2022-11-18T18:28:44.316Z,4.70
2022-11-18T18:31:12.620Z,3.03
2022-11-18T18:33:44.932Z,2.90
2022-11-18T18:36:15.377Z,2.73
2022-11-18T18:38:42.071Z,3.00
2022-11-18T18:41:10.192Z,2.70
2022-11-18T18:43:36.351Z,2.77
2022-11-18T18:46:23.033Z,2.40
2022-11-18T18:48:49.148Z,2.83
2022-11-18T18:51:16.421Z,2.73
2022-11-18T18:53:42.632Z,2.70
2022-11-18T18:56:09.425Z,3.07
2022-11-18T18:58:35.754Z,3.00
2022-11-18T19:01:08.639Z,3.20
2022-11-18T19:03:35.341Z,3.17
2022-11-18T19:09:12.424Z,3.00
2022-11-18T19:11:57.508Z,3.63
2022-11-18T19:14:24.330Z,3.20
2022-11-18T19:16:50.633Z,2.83
2022-11-18T19:19:40.638Z,3.33
2022-11-18T19:22:07.085Z,3.07
2022-11-18T19:24:48.612Z,3.20
2022-11-18T19:27:15.626Z,3.83
2022-11-18T19:29:41.670Z,4.27
2022-11-18T19:32:07.754Z,4.37
2022-11-18T19:34:33.799Z,4.90
2022-11-18T19:37:00.808Z,4.73
2022-11-18T19:39:26.980Z,5.17
2022-11-18T19:41:53.116Z,4.13
2022-11-18T19:44:19.160Z,5.47
2022-11-18T19:46:45.223Z,5.43
2022-11-18T19:49:11.295Z,5.67
2022-11-18T19:51:37.362Z,5.20
2022-11-18T19:54:04.195Z,5.77
2022-11-18T19:56:30.268Z,6.93
2022-11-18T19:58:56.347Z,7.47
2022-11-18T20:01:27.750Z,6.40
2022-11-18T20:03:56.971Z,6.53
2022-11-18T20:06:24.853Z,7.20
2022-11-18T20:08:51.074Z,6.50
2022-11-18T20:11:18.490Z,6.77
2022-11-18T20:13:45.326Z,7.00
2022-11-18T20:16:18.080Z,7.20
2022-11-18T20:18:46.850Z,7.57
2022-11-18T20:21:19.067Z,8.00
2022-11-18T20:23:46.468Z,7.87
2022-11-18T20:26:13.898Z,7.87
2022-11-18T20:28:41.665Z,8.40
2022-11-18T20:31:09.668Z,8.03
2022-11-18T20:33:37.324Z,8.67
2022-11-18T20:36:07.730Z,8.80
2022-11-18T20:38:34.122Z,8.80
2022-11-18T20:41:05.185Z,8.57
2022-11-18T20:43:34.525Z,8.00
2022-11-18T20:46:01.601Z,8.87
2022-11-18T20:48:28.469Z,8.23
2022-11-18T20:50:54.542Z,7.93
2022-11-18T20:53:24.617Z,8.30
2022-11-18T20:55:50.896Z,8.17
2022-11-18T20:58:17.948Z,8.70
2022-11-18T21:00:45.601Z,8.87
2022-11-18T21:03:11.832Z,8.30
2022-11-18T21:05:41.751Z,7.87
2022-11-18T21:08:09.018Z,8.07
2022-11-18T21:10:35.913Z,8.17
2022-11-18T21:13:21.218Z,8.47
2022-11-18T21:15:47.508Z,8.30
2022-11-18T21:18:13.583Z,10.37
2022-11-18T21:20:58.406Z,9.43
2022-11-18T21:23:24.498Z,10.97
2022-11-18T21:25:50.581Z,10.70
2022-11-18T21:28:16.635Z,10.73
2022-11-18T21:30:42.717Z,12.20
2022-11-18T21:33:08.889Z,12.37
2022-11-18T21:35:34.945Z,11.87
2022-11-18T21:38:04.320Z,11.50
2022-11-18T21:40:30.580Z,12.20
2022-11-18T21:42:56.621Z,12.50
2022-11-18T21:45:22.673Z,13.07
2022-11-18T21:47:48.772Z,11.90
2022-11-18T21:50:15.160Z,12.60
2022-11-18T21:52:41.217Z,13.10
2022-11-18T21:55:07.644Z,13.13
2022-11-18T21:57:33.759Z,13.50
2022-11-18T21:59:59.937Z,13.40
2022-11-18T22:02:26.102Z,13.50
2022-11-18T22:04:52.170Z,15.37
2022-11-18T22:07:19.515Z,14.20
2022-11-18T22:09:45.725Z,14.10
2022-11-18T22:12:11.807Z,14.07
2022-11-18T22:14:37.859Z,14.27
2022-11-18T22:17:04.184Z,16.27
2022-11-18T22:19:30.455Z,15.33
2022-11-18T22:21:56.519Z,16.00
2022-11-18T22:24:22.620Z,15.40
2022-11-18T22:26:48.703Z,14.90
2022-11-18T22:29:14.791Z,14.80
2022-11-18T22:31:40.882Z,15.97
2022-11-18T22:34:08.714Z,15.90
2022-11-18T22:36:34.921Z,15.63
2022-11-18T22:39:01.171Z,15.37
2022-11-18T22:41:46.441Z,16.47
2022-11-18T22:44:14.347Z,15.00
2022-11-18T22:46:42.732Z,15.97
2022-11-18T22:49:09.777Z,14.27
2022-11-18T22:51:37.062Z,15.30
2022-11-18T22:54:36.618Z,14.77
2022-11-18T22:56:50.050Z,16.57
2022-11-18T22:59:16.542Z,15.30
2022-11-18T23:01:43.340Z,15.17
2022-11-18T23:04:09.416Z,14.97
2022-11-18T23:06:35.526Z,16.83
2022-11-18T23:09:01.784Z,15.97
2022-11-18T23:11:46.433Z,17.00
2022-11-18T23:14:12.610Z,16.10
2022-11-18T23:16:40.927Z,16.83
2022-11-18T23:19:12.376Z,17.77
2022-11-18T23:21:38.666Z,17.80
2022-11-18T23:24:05.229Z,17.30
2022-11-18T23:26:31.524Z,16.33
2022-11-18T23:28:57.675Z,16.70
2022-11-18T23:31:25.842Z,16.23
2022-11-18T23:33:53.647Z,17.73
2022-11-18T23:36:19.975Z,19.13
2022-11-18T23:38:46.479Z,18.80
2022-11-18T23:41:14.318Z,17.07
2022-11-18T23:43:40.616Z,17.90
2022-11-18T23:46:07.760Z,18.00
2022-11-18T23:48:36.012Z,18.83
2022-11-18T23:51:08.683Z,18.17
2022-11-18T23:53:35.881Z,18.13
2022-11-18T23:56:04.803Z,17.90
2022-11-18T23:58:30.933Z,17.80
